Briefing drone pour Romorantin-lanthenay (LFYR)

Rechercher une autre localisation

Conditions de vol :


Nous sommes le : Dimanche 19 septembre 2021
Il est 08:10 UTC (10:10 LT)

Lever de soleil : 05:09 UTC (07:09 LT)
Coucher de soleil : 18:23 UTC (20:23 LT)

Météo

L'essentiel des conditions de vol

VIGILANCE MÉTÉO FRANCE - Loir-et-Cher (41)
Vigilance Jaune : Pluie-inondation
CARTES DES FRONTS
METAR de LFYR
LFYR 190800Z AUTO 24004KT 220V280 7000 -RA BKN006 OVC036 14/14 Q1014

Date d'émission: 19/09/2021
Heure d'émission: 08:00 UTC
Vent: 240° (variable du 220° au 280°) pour 4 KT (7 km/h)
Visibilité horizontale: 7000 m
Plafond :
- Nuages morcelés à 600ft (183m)
- Couvert à 3600ft (1097m)
Température: 14 °C
Point de rosée: 14 °C
Humidité: 100%
Pression (QNH): 1014 hPa
Conditions: Faible pluie
TAF de LFYR
AMD LFYR 171259Z 1712/1809 CNL

Conditions prévues :

Heure d'émission : Bulletin éffectué le 17 à 12:00 UTC
Prévision : Valide du 17 a 12:00 UTC au 18 a 09:00 UTC
Nuages : à 0ft (0 m)
WEBCAM POUR ROMORANTIN-LANTHENAY

Réglementation

Voler en sécurité

CARTES AERONAUTIQUE 1/500.000
CARTES VAC (LFYR)
SUP AIP




Chargement des AIP...
NOTAM (ROMORANTIN-LANTHENAY + Terrain à proximité / FIR )




Chargement des NOTAMS...
CONTACT PREFECTURE 41
Loir-et-Cher (41) : pref-bpas@loir-et-cher.gouv.fr


Avertissement : Les données mises à disposition sont indicatives. Oxygène Drone ne pourra être tenu responsable de dégâts causés aux biens et aux personnes.